createdAt,value
2023-07-25T00:01:05.690Z,12.38
2023-07-25T00:03:32.791Z,13.60
2023-07-25T00:06:03.213Z,10.23
2023-07-25T00:08:30.573Z,10.38
2023-07-25T00:10:57.577Z,13.60
2023-07-25T00:13:24.493Z,12.80
2023-07-25T00:15:52.446Z,16.13
2023-07-25T00:18:19.241Z,15.30
2023-07-25T00:20:46.213Z,13.90
2023-07-25T00:23:12.951Z,11.55
2023-07-25T00:25:39.793Z,12.82
2023-07-25T00:28:06.606Z,17.52
2023-07-25T00:30:33.351Z,13.73
2023-07-25T00:33:00.175Z,14.23
2023-07-25T00:35:27.012Z,12.40
2023-07-25T00:37:53.840Z,14.32
2023-07-25T00:40:20.603Z,16.30
2023-07-25T00:42:47.461Z,13.25
2023-07-25T00:45:14.286Z,14.45
2023-07-25T00:47:41.156Z,11.85
2023-07-25T00:50:08.531Z,17.05
2023-07-25T00:52:35.456Z,10.57
2023-07-25T00:55:03.507Z,18.60
2023-07-25T00:57:32.007Z,14.88
2023-07-25T00:59:58.756Z,14.98
2023-07-25T01:02:26.330Z,10.70
2023-07-25T01:04:53.275Z,14.90
2023-07-25T01:07:21.071Z,11.85
2023-07-25T01:09:47.913Z,12.05
2023-07-25T01:12:14.798Z,14.90
2023-07-25T01:14:42.296Z,17.20
2023-07-25T01:17:14.619Z,16.98
2023-07-25T01:19:47.734Z,14.07
2023-07-25T01:22:15.005Z,15.45
2023-07-25T01:24:49.022Z,16.08
2023-07-25T01:27:16.801Z,11.02
2023-07-25T01:29:44.210Z,18.45
2023-07-25T01:32:11.751Z,14.23
2023-07-25T01:34:39.250Z,13.75
2023-07-25T01:37:07.460Z,17.92
2023-07-25T01:39:34.254Z,13.57
2023-07-25T01:42:01.035Z,13.00
2023-07-25T01:44:27.772Z,20.45
2023-07-25T01:46:58.072Z,13.15
2023-07-25T01:49:25.070Z,11.38
2023-07-25T01:51:51.971Z,13.25
2023-07-25T01:54:18.858Z,17.27
2023-07-25T01:56:47.460Z,12.98
2023-07-25T01:59:17.775Z,14.70
2023-07-25T02:01:44.712Z,16.63
2023-07-25T02:04:11.606Z,12.98
2023-07-25T02:06:38.404Z,20.23
2023-07-25T02:09:05.204Z,15.35
2023-07-25T02:11:32.229Z,18.90
2023-07-25T02:13:59.131Z,10.05
2023-07-25T02:16:25.913Z,15.40
2023-07-25T02:18:52.641Z,17.08
2023-07-25T02:21:19.408Z,15.48
2023-07-25T02:23:46.221Z,14.35
2023-07-25T02:26:13.028Z,13.68
2023-07-25T02:28:39.789Z,20.60
2023-07-25T02:31:06.724Z,17.10
2023-07-25T02:33:33.562Z,21.20
2023-07-25T02:36:00.408Z,15.60
2023-07-25T02:38:28.348Z,16.60
2023-07-25T02:40:55.158Z,15.13
2023-07-25T02:43:23.684Z,22.02
2023-07-25T02:45:51.459Z,19.33
2023-07-25T02:48:18.680Z,22.25
2023-07-25T02:50:45.561Z,15.95
2023-07-25T02:53:12.591Z,12.23
2023-07-25T02:55:39.620Z,19.23
2023-07-25T02:58:06.381Z,20.17
2023-07-25T03:00:33.212Z,16.60
2023-07-25T03:03:00.167Z,23.65
2023-07-25T03:05:30.005Z,22.02
2023-07-25T03:07:59.839Z,14.38
2023-07-25T03:10:27.004Z,16.75
2023-07-25T03:12:54.093Z,15.45
2023-07-25T03:15:21.527Z,21.48
2023-07-25T03:17:48.969Z,26.83
2023-07-25T03:20:15.820Z,15.05
2023-07-25T03:22:42.825Z,22.52
2023-07-25T03:25:10.348Z,18.98
2023-07-25T03:27:37.267Z,24.75
2023-07-25T03:30:05.321Z,18.85
2023-07-25T03:32:32.357Z,15.85
2023-07-25T03:34:59.296Z,21.10
2023-07-25T03:37:26.233Z,17.70
2023-07-25T03:39:54.269Z,26.20
2023-07-25T03:42:21.068Z,17.50
2023-07-25T03:44:47.913Z,20.50
2023-07-25T03:47:14.716Z,20.23
2023-07-25T03:49:41.463Z,24.17
2023-07-25T03:52:08.802Z,20.85
2023-07-25T03:54:35.608Z,11.75
2023-07-25T03:57:02.860Z,11.85
2023-07-25T03:59:29.622Z,13.70
2023-07-25T04:01:56.401Z,16.38
2023-07-25T04:04:23.242Z,19.42
2023-07-25T04:06:50.096Z,20.38
2023-07-25T04:09:16.804Z,20.58
2023-07-25T04:11:43.522Z,18.77
2023-07-25T04:14:10.298Z,15.38
2023-07-25T04:16:37.136Z,31.20
2023-07-25T04:19:03.946Z,20.63
2023-07-25T04:21:30.905Z,17.85
2023-07-25T04:23:57.883Z,13.00
2023-07-25T04:26:24.617Z,25.95
2023-07-25T04:28:51.379Z,14.57
2023-07-25T04:31:18.164Z,18.33
2023-07-25T04:33:45.097Z,15.48
2023-07-25T04:36:11.934Z,14.82
2023-07-25T04:38:38.683Z,18.70
2023-07-25T04:41:05.474Z,15.98
2023-07-25T04:43:32.237Z,14.88
2023-07-25T04:45:59.013Z,21.85
2023-07-25T04:48:25.905Z,17.15
2023-07-25T04:50:52.710Z,11.80
2023-07-25T04:53:19.447Z,13.90
2023-07-25T04:55:46.239Z,11.02
2023-07-25T04:58:12.992Z,13.05
2023-07-25T05:00:39.797Z,10.90
2023-07-25T05:03:06.759Z,12.02
2023-07-25T05:05:33.676Z,13.70
2023-07-25T05:08:00.470Z,9.25
2023-07-25T05:10:27.244Z,15.40
2023-07-25T05:12:54.042Z,18.60
2023-07-25T05:15:20.843Z,17.35
2023-07-25T05:17:47.687Z,9.10
2023-07-25T05:20:14.770Z,9.77
2023-07-25T05:22:41.696Z,11.40
2023-07-25T05:25:08.883Z,12.27
2023-07-25T05:27:36.027Z,12.80
2023-07-25T05:30:03.947Z,9.75
2023-07-25T05:32:30.748Z,13.38
2023-07-25T05:34:57.506Z,9.25
2023-07-25T05:37:33.791Z,15.98
2023-07-25T05:40:00.627Z,12.80
2023-07-25T05:42:27.385Z,11.68
2023-07-25T05:44:54.236Z,15.07
2023-07-25T05:47:21.004Z,10.77
2023-07-25T05:49:47.759Z,8.95
2023-07-25T05:52:14.581Z,16.10
2023-07-25T05:54:41.331Z,9.68
2023-07-25T05:57:08.448Z,8.43
2023-07-25T05:59:35.245Z,10.60
2023-07-25T06:02:03.266Z,8.75
2023-07-25T06:04:30.617Z,11.18
2023-07-25T06:06:57.494Z,12.43
2023-07-25T06:09:24.418Z,12.60
2023-07-25T06:11:51.281Z,6.00
2023-07-25T06:14:18.040Z,14.57
2023-07-25T06:16:44.893Z,13.50
2023-07-25T06:19:11.805Z,10.27
2023-07-25T06:21:38.648Z,8.00
2023-07-25T06:24:05.703Z,8.60
2023-07-25T06:26:32.667Z,6.82
2023-07-25T06:28:59.603Z,10.20
2023-07-25T06:31:26.505Z,12.55
2023-07-25T06:33:53.452Z,15.02
2023-07-25T06:36:20.594Z,9.90
2023-07-25T06:38:47.303Z,10.93
2023-07-25T06:41:14.037Z,13.10
2023-07-25T06:43:40.855Z,6.93
2023-07-25T06:46:07.725Z,8.98
2023-07-25T06:48:34.574Z,7.38
2023-07-25T06:51:01.326Z,5.50
2023-07-25T06:53:28.058Z,10.52
2023-07-25T06:55:54.825Z,11.07
2023-07-25T06:58:21.643Z,9.50
2023-07-25T07:00:48.584Z,7.95
2023-07-25T07:03:16.348Z,8.13
2023-07-25T07:05:53.222Z,12.55
2023-07-25T07:08:21.147Z,11.13
2023-07-25T07:10:52.205Z,10.25
2023-07-25T07:13:19.032Z,7.57
2023-07-25T07:15:47.343Z,10.05
2023-07-25T07:18:14.204Z,10.18
2023-07-25T07:20:41.009Z,8.43
2023-07-25T07:23:07.925Z,10.43
2023-07-25T07:25:37.942Z,5.68
2023-07-25T07:28:05.288Z,10.05
2023-07-25T07:30:32.037Z,8.75
2023-07-25T07:32:58.908Z,7.65
2023-07-25T07:35:25.744Z,7.30
2023-07-25T07:37:52.472Z,7.47
2023-07-25T07:40:19.372Z,6.63
2023-07-25T07:42:46.141Z,10.38
2023-07-25T07:45:13.042Z,10.10
2023-07-25T07:47:39.886Z,5.57
2023-07-25T07:50:07.128Z,12.75
2023-07-25T07:52:43.568Z,8.15
2023-07-25T07:55:11.739Z,8.70
2023-07-25T07:57:43.113Z,7.28
2023-07-25T08:00:11.016Z,7.43
2023-07-25T08:02:38.445Z,7.55
2023-07-25T08:05:05.633Z,5.15
2023-07-25T08:07:32.583Z,5.78
2023-07-25T08:09:59.458Z,6.80
2023-07-25T08:12:26.369Z,5.95
2023-07-25T08:14:53.351Z,6.18
2023-07-25T08:17:20.193Z,5.40
2023-07-25T08:19:47.266Z,7.90
2023-07-25T08:22:14.056Z,6.05
2023-07-25T08:24:41.632Z,6.88
2023-07-25T08:27:09.451Z,6.88
2023-07-25T08:29:41.072Z,5.50
2023-07-25T08:32:10.003Z,8.27
2023-07-25T08:34:38.030Z,11.13
2023-07-25T08:37:05.776Z,5.47
2023-07-25T08:39:32.646Z,4.38
2023-07-25T08:42:01.098Z,7.28
2023-07-25T08:44:28.421Z,8.00
2023-07-25T08:46:57.528Z,6.22
2023-07-25T08:49:26.003Z,6.47
2023-07-25T08:51:54.531Z,6.28
2023-07-25T08:54:38.502Z,7.35
2023-07-25T08:57:05.933Z,6.70
2023-07-25T08:59:33.279Z,8.23
2023-07-25T09:02:00.853Z,7.53
2023-07-25T09:04:28.570Z,9.10
2023-07-25T09:06:55.524Z,11.38
2023-07-25T09:09:23.657Z,9.05
2023-07-25T09:11:51.294Z,9.35
2023-07-25T09:14:18.303Z,6.40
2023-07-25T09:16:45.208Z,8.40
2023-07-25T09:19:12.744Z,8.57
2023-07-25T09:22:06.249Z,13.70
2023-07-25T09:24:40.305Z,8.77
2023-07-25T09:27:17.875Z,10.73
2023-07-25T09:29:45.973Z,6.78
2023-07-25T09:32:22.412Z,10.73
2023-07-25T09:34:58.099Z,9.00
2023-07-25T09:37:25.569Z,8.93
2023-07-25T09:39:52.941Z,6.88
2023-07-25T09:42:24.216Z,9.70
2023-07-25T09:44:52.507Z,5.70
2023-07-25T09:47:26.967Z,7.28
2023-07-25T09:49:55.810Z,7.03
2023-07-25T09:52:24.216Z,5.25
2023-07-25T09:54:51.450Z,6.47
2023-07-25T09:57:18.251Z,6.80
2023-07-25T09:59:48.467Z,7.55
2023-07-25T10:02:16.973Z,10.13
2023-07-25T10:04:44.555Z,7.65
2023-07-25T10:07:11.461Z,7.38
2023-07-25T10:09:39.405Z,9.57
2023-07-25T10:12:07.586Z,6.80
2023-07-25T10:14:38.365Z,8.23
2023-07-25T10:17:07.497Z,7.10
2023-07-25T10:19:48.608Z,7.60
2023-07-25T10:22:15.713Z,12.43
2023-07-25T10:24:42.723Z,11.52
2023-07-25T10:27:10.825Z,9.75
2023-07-25T10:29:43.448Z,8.30
2023-07-25T10:32:17.541Z,10.32
2023-07-25T10:34:46.770Z,8.95
2023-07-25T10:37:43.774Z,4.55
2023-07-25T10:40:20.953Z,8.75
2023-07-25T10:43:05.745Z,7.18
2023-07-25T10:45:34.140Z,9.50
2023-07-25T10:48:01.587Z,11.30
2023-07-25T10:50:48.865Z,8.95
2023-07-25T10:53:22.925Z,5.57
2023-07-25T10:56:09.242Z,9.30
2023-07-25T10:59:05.743Z,7.20
2023-07-25T11:01:51.858Z,7.05
2023-07-25T11:04:23.365Z,6.38
2023-07-25T11:06:51.774Z,6.40
2023-07-25T11:09:19.704Z,8.20
2023-07-25T11:11:48.262Z,6.95
2023-07-25T11:14:16.813Z,4.80
2023-07-25T11:16:45.404Z,4.65
2023-07-25T11:19:12.555Z,4.10
2023-07-25T11:21:45.299Z,3.47
2023-07-25T11:24:15.547Z,5.03
2023-07-25T11:26:44.377Z,3.63
2023-07-25T11:29:14.192Z,7.55
2023-07-25T11:31:48.693Z,7.15
2023-07-25T11:34:17.687Z,7.30
2023-07-25T11:36:45.369Z,4.50
2023-07-25T11:39:14.629Z,2.40
2023-07-25T11:41:42.275Z,7.57
2023-07-25T11:44:18.379Z,4.82
2023-07-25T11:46:50.087Z,5.18
2023-07-25T11:49:28.327Z,7.00
2023-07-25T11:52:04.605Z,4.80
2023-07-25T11:54:32.684Z,5.00
2023-07-25T11:56:59.529Z,3.58
2023-07-25T11:59:28.236Z,4.95
2023-07-25T12:01:55.173Z,5.28
2023-07-25T12:04:22.013Z,5.22
2023-07-25T12:06:48.879Z,6.38
2023-07-25T12:09:29.208Z,5.05
2023-07-25T12:11:56.121Z,5.47
2023-07-25T12:14:23.501Z,4.72
2023-07-25T12:16:50.303Z,3.75
2023-07-25T12:19:17.361Z,7.65
2023-07-25T12:21:45.545Z,3.55
2023-07-25T12:24:14.374Z,6.95
2023-07-25T12:26:44.976Z,3.90
2023-07-25T12:29:22.268Z,4.60
2023-07-25T12:31:49.685Z,4.43
2023-07-25T12:34:21.502Z,5.85
2023-07-25T12:36:49.282Z,7.22
2023-07-25T12:39:16.281Z,5.82
2023-07-25T12:41:44.865Z,10.60
2023-07-25T12:44:12.213Z,8.13
2023-07-25T12:46:40.457Z,6.00
2023-07-25T12:49:08.271Z,5.88
2023-07-25T12:51:35.292Z,5.28
2023-07-25T12:54:03.264Z,4.63
2023-07-25T12:56:30.845Z,4.80
2023-07-25T12:58:57.910Z,7.35
2023-07-25T13:01:25.494Z,5.13
2023-07-25T13:03:52.627Z,5.45
2023-07-25T13:06:19.779Z,3.85
2023-07-25T13:08:46.589Z,11.30
2023-07-25T13:11:13.541Z,7.82
2023-07-25T13:13:40.400Z,7.70
2023-07-25T13:16:07.813Z,6.38
2023-07-25T13:18:35.066Z,6.22
2023-07-25T13:21:02.335Z,4.40
2023-07-25T13:23:29.079Z,6.22
2023-07-25T13:25:55.875Z,3.83
2023-07-25T13:28:24.528Z,5.72
2023-07-25T13:30:52.148Z,3.30
2023-07-25T13:33:19.016Z,4.07
2023-07-25T13:35:45.868Z,10.50
2023-07-25T13:38:12.677Z,4.05
2023-07-25T13:40:39.462Z,4.80
2023-07-25T13:43:06.228Z,5.38
2023-07-25T13:45:46.200Z,6.65
2023-07-25T13:48:19.253Z,5.88
2023-07-25T13:50:53.797Z,4.85
2023-07-25T13:53:25.083Z,4.60
2023-07-25T13:55:52.678Z,3.72
2023-07-25T14:00:49.130Z,5.55
2023-07-25T14:03:16.052Z,4.20
2023-07-25T14:05:42.900Z,8.70
2023-07-25T14:08:09.917Z,5.50
2023-07-25T14:10:37.644Z,4.70
2023-07-25T14:13:05.084Z,4.75
2023-07-25T14:15:32.682Z,3.28
2023-07-25T14:18:01.388Z,4.80
2023-07-25T14:20:28.930Z,5.53
2023-07-25T14:22:55.850Z,3.55
2023-07-25T14:25:22.950Z,8.55
2023-07-25T14:27:50.250Z,4.53
2023-07-25T14:30:17.294Z,5.13
2023-07-25T14:32:44.379Z,4.72
2023-07-25T14:35:11.329Z,4.57
2023-07-25T14:37:53.594Z,5.60
2023-07-25T14:40:22.635Z,4.05
2023-07-25T14:42:49.661Z,3.35
2023-07-25T14:45:16.587Z,5.43
2023-07-25T14:47:43.585Z,4.20
2023-07-25T14:50:10.859Z,3.95
2023-07-25T14:52:37.716Z,2.60
2023-07-25T14:55:04.862Z,2.83
2023-07-25T14:57:31.828Z,3.38
2023-07-25T14:59:58.792Z,4.28
2023-07-25T15:02:25.770Z,3.83
2023-07-25T15:04:52.713Z,2.55
2023-07-25T15:07:19.566Z,2.17
2023-07-25T15:09:46.393Z,2.83
2023-07-25T15:12:13.287Z,3.22
2023-07-25T15:14:40.044Z,3.75
2023-07-25T15:17:06.934Z,3.83
2023-07-25T15:19:33.873Z,3.53
2023-07-25T15:22:00.889Z,2.00
2023-07-25T15:24:28.282Z,1.73
2023-07-25T15:26:56.843Z,5.35
2023-07-25T15:29:24.181Z,1.88
2023-07-25T15:31:52.278Z,4.78
2023-07-25T15:34:19.286Z,4.40
2023-07-25T15:36:46.817Z,6.05
2023-07-25T15:39:13.989Z,2.80
2023-07-25T15:41:40.919Z,7.20
2023-07-25T15:44:07.883Z,2.35
2023-07-25T15:46:34.696Z,2.63
2023-07-25T15:49:01.589Z,6.63
2023-07-25T15:51:28.550Z,6.78
2023-07-25T15:53:55.434Z,2.17
2023-07-25T15:56:22.216Z,5.25
2023-07-25T15:58:49.006Z,2.85
2023-07-25T16:01:15.965Z,5.25
2023-07-25T16:03:47.134Z,6.25
2023-07-25T16:06:14.222Z,3.70
2023-07-25T16:08:40.981Z,5.93
2023-07-25T16:11:07.870Z,3.05
2023-07-25T16:13:41.394Z,5.32
2023-07-25T16:16:08.310Z,4.57
2023-07-25T16:18:35.153Z,4.22
2023-07-25T16:21:02.432Z,4.15
2023-07-25T16:23:29.238Z,3.72
2023-07-25T16:25:57.516Z,5.55
2023-07-25T16:28:24.400Z,6.05
2023-07-25T16:30:58.947Z,2.55
2023-07-25T16:33:33.921Z,7.28
2023-07-25T16:36:00.831Z,2.80
2023-07-25T16:38:28.823Z,4.18
2023-07-25T16:40:55.787Z,3.58
2023-07-25T16:43:23.147Z,4.05
2023-07-25T16:45:50.832Z,6.10
2023-07-25T16:48:17.627Z,6.55
2023-07-25T16:50:44.391Z,1.58
2023-07-25T16:53:11.224Z,4.75
2023-07-25T16:55:38.061Z,4.57
2023-07-25T16:58:04.811Z,6.18
2023-07-25T17:00:32.295Z,5.25
2023-07-25T17:02:59.144Z,7.55
2023-07-25T17:05:26.036Z,6.10
2023-07-25T17:07:52.812Z,6.05
2023-07-25T17:10:19.594Z,4.63
2023-07-25T17:12:46.396Z,7.03
2023-07-25T17:15:13.170Z,3.17
2023-07-25T17:17:39.970Z,4.72
2023-07-25T17:20:15.783Z,2.85
2023-07-25T17:22:43.359Z,3.63
2023-07-25T17:25:10.238Z,7.13
2023-07-25T17:27:37.151Z,8.13
2023-07-25T17:30:06.421Z,7.70
2023-07-25T17:32:33.309Z,4.28
2023-07-25T17:35:00.256Z,3.88
2023-07-25T17:37:27.162Z,3.00
2023-07-25T17:39:54.066Z,4.10
2023-07-25T17:42:20.842Z,1.92
2023-07-25T17:44:47.618Z,4.70
2023-07-25T17:47:14.431Z,4.97
2023-07-25T17:49:41.232Z,4.53
2023-07-25T17:52:08.544Z,1.88
2023-07-25T17:54:35.542Z,5.78
2023-07-25T17:57:02.664Z,4.00
2023-07-25T17:59:29.940Z,3.90
2023-07-25T18:01:56.732Z,3.05
2023-07-25T18:04:23.474Z,4.80
2023-07-25T18:06:50.454Z,5.10
2023-07-25T18:09:17.258Z,7.03
2023-07-25T18:11:44.110Z,3.00
2023-07-25T18:14:10.940Z,3.75
2023-07-25T18:16:37.778Z,2.92
2023-07-25T18:19:04.613Z,3.22
2023-07-25T18:21:31.769Z,6.15
2023-07-25T18:23:58.851Z,4.38
2023-07-25T18:26:25.919Z,3.95
2023-07-25T18:28:52.684Z,5.38
2023-07-25T18:31:19.631Z,3.40
2023-07-25T18:33:46.454Z,3.83
2023-07-25T18:36:13.462Z,3.00
2023-07-25T18:38:40.326Z,4.07
2023-07-25T18:41:07.360Z,3.50
2023-07-25T18:43:34.244Z,4.45
2023-07-25T18:46:01.065Z,3.72
2023-07-25T18:48:27.884Z,3.95
2023-07-25T18:50:54.686Z,3.63
2023-07-25T18:53:21.882Z,5.60
2023-07-25T18:55:50.202Z,4.35
2023-07-25T18:58:17.711Z,5.63
2023-07-25T19:00:45.130Z,7.35
2023-07-25T19:03:12.325Z,4.07
2023-07-25T19:05:39.371Z,2.75
2023-07-25T19:08:06.396Z,2.22
2023-07-25T19:10:33.855Z,3.30
2023-07-25T19:13:00.863Z,4.70
2023-07-25T19:15:27.867Z,3.42
2023-07-25T19:17:55.043Z,4.65
2023-07-25T19:20:22.027Z,3.63
2023-07-25T19:22:49.103Z,3.92
2023-07-25T19:25:16.267Z,4.80
2023-07-25T19:27:45.402Z,7.93
2023-07-25T19:30:12.974Z,1.98
2023-07-25T19:32:40.028Z,2.80
2023-07-25T19:35:10.236Z,2.05
2023-07-25T19:37:37.751Z,5.45
2023-07-25T19:40:05.341Z,2.90
2023-07-25T19:42:33.685Z,3.25
2023-07-25T19:45:00.931Z,4.05
2023-07-25T19:47:27.805Z,4.18
2023-07-25T19:49:54.654Z,6.05
2023-07-25T19:52:21.570Z,3.92
2023-07-25T19:54:49.259Z,4.82
2023-07-25T19:57:16.485Z,3.47
2023-07-25T19:59:43.552Z,7.32
2023-07-25T20:02:10.462Z,6.20
2023-07-25T20:04:37.532Z,13.13
2023-07-25T20:07:04.719Z,6.22
2023-07-25T20:09:31.750Z,5.32
2023-07-25T20:11:58.939Z,2.72
2023-07-25T20:14:26.079Z,7.72
2023-07-25T20:16:53.512Z,5.75
2023-07-25T20:19:24.306Z,3.42
2023-07-25T20:21:54.960Z,3.60
2023-07-25T20:24:22.302Z,4.18
2023-07-25T20:26:49.489Z,4.45
2023-07-25T20:29:16.702Z,3.90
2023-07-25T20:31:43.812Z,4.38
2023-07-25T20:34:10.817Z,5.25
2023-07-25T20:36:38.269Z,3.30
2023-07-25T20:39:05.303Z,3.80
2023-07-25T20:41:32.635Z,3.45
2023-07-25T20:43:59.521Z,4.40
2023-07-25T20:46:26.461Z,3.63
2023-07-25T20:48:53.502Z,3.55
2023-07-25T20:51:20.488Z,5.65
2023-07-25T20:53:47.381Z,3.22
2023-07-25T20:56:15.339Z,4.05
2023-07-25T20:58:42.822Z,5.18
2023-07-25T21:01:09.705Z,4.85
2023-07-25T21:03:36.650Z,3.78
2023-07-25T21:06:04.501Z,5.15
2023-07-25T21:08:31.475Z,5.13
2023-07-25T21:10:59.699Z,5.32
2023-07-25T21:13:26.474Z,5.05
2023-07-25T21:15:53.381Z,4.03
2023-07-25T21:18:20.240Z,6.35
2023-07-25T21:20:47.412Z,5.65
2023-07-25T21:23:14.350Z,5.72
2023-07-25T21:25:42.773Z,4.30
2023-07-25T21:28:09.872Z,5.32
2023-07-25T21:30:37.264Z,4.68
2023-07-25T21:33:04.873Z,4.00
2023-07-25T21:35:32.313Z,4.88
2023-07-25T21:37:59.480Z,7.97
2023-07-25T21:40:26.427Z,2.97
2023-07-25T21:42:53.763Z,8.85
2023-07-25T21:45:20.766Z,9.50
2023-07-25T21:47:47.789Z,4.93
2023-07-25T21:50:14.787Z,4.80
2023-07-25T21:52:41.811Z,7.10
2023-07-25T21:55:11.519Z,6.57
2023-07-25T21:57:38.412Z,4.47
2023-07-25T22:00:06.588Z,9.38
2023-07-25T22:02:33.514Z,4.18
2023-07-25T22:05:01.069Z,6.43
2023-07-25T22:07:28.037Z,6.47
2023-07-25T22:09:54.877Z,6.43
2023-07-25T22:12:21.734Z,3.70
2023-07-25T22:14:48.564Z,10.45
2023-07-25T22:17:15.354Z,4.65
2023-07-25T22:19:43.431Z,3.13
2023-07-25T22:22:10.383Z,8.88
2023-07-25T22:24:37.269Z,3.38
2023-07-25T22:27:04.592Z,5.35
2023-07-25T22:29:31.440Z,2.80
2023-07-25T22:31:58.326Z,8.18
2023-07-25T22:34:25.304Z,6.53
2023-07-25T22:36:52.173Z,5.65
2023-07-25T22:39:19.421Z,6.65
2023-07-25T22:41:46.319Z,7.93
2023-07-25T22:44:13.066Z,5.88
2023-07-25T22:46:39.878Z,5.55
2023-07-25T22:49:06.659Z,4.32
2023-07-25T22:51:33.405Z,6.35
2023-07-25T22:54:00.262Z,7.47
2023-07-25T22:56:27.073Z,5.88
2023-07-25T22:58:53.980Z,6.15
2023-07-25T23:01:20.810Z,6.47
2023-07-25T23:03:47.680Z,4.13
2023-07-25T23:06:14.449Z,3.40
2023-07-25T23:08:41.303Z,4.38
2023-07-25T23:11:08.150Z,7.15
2023-07-25T23:13:34.938Z,4.47
2023-07-25T23:16:01.931Z,4.57
2023-07-25T23:18:28.750Z,7.85
2023-07-25T23:20:55.539Z,4.00
2023-07-25T23:23:22.405Z,4.68
2023-07-25T23:25:49.370Z,4.50
2023-07-25T23:28:16.124Z,5.57
2023-07-25T23:30:42.936Z,5.70
2023-07-25T23:33:09.899Z,4.40
2023-07-25T23:35:36.845Z,5.97
2023-07-25T23:38:03.854Z,8.60
2023-07-25T23:40:30.709Z,6.90
2023-07-25T23:42:57.521Z,6.20
2023-07-25T23:45:24.393Z,4.78
2023-07-25T23:47:51.312Z,4.72
2023-07-25T23:50:18.200Z,3.47
2023-07-25T23:52:45.113Z,6.38
2023-07-25T23:55:12.331Z,8.10
2023-07-25T23:57:39.141Z,5.10
